createdAt,value
2023-02-09T00:01:20.386Z,972.78
2023-02-09T00:03:46.807Z,972.86
2023-02-09T00:06:13.096Z,972.89
2023-02-09T00:08:39.471Z,972.85
2023-02-09T00:11:05.897Z,972.82
2023-02-09T00:13:32.278Z,972.85
2023-02-09T00:15:58.765Z,972.87
2023-02-09T00:18:25.116Z,972.77
2023-02-09T00:20:51.461Z,972.80
2023-02-09T00:23:17.798Z,972.76
2023-02-09T00:25:44.218Z,972.75
2023-02-09T00:28:10.587Z,972.78
2023-02-09T00:30:36.980Z,972.77
2023-02-09T00:33:03.301Z,972.74
2023-02-09T00:35:29.648Z,972.76
2023-02-09T00:37:56.040Z,972.70
2023-02-09T00:40:22.364Z,972.65
2023-02-09T00:42:48.705Z,972.70
2023-02-09T00:45:15.146Z,972.60
2023-02-09T00:47:41.487Z,972.59
2023-02-09T00:50:07.815Z,972.57
2023-02-09T00:52:34.170Z,972.49
2023-02-09T00:55:00.526Z,972.53
2023-02-09T00:57:26.865Z,972.49
2023-02-09T00:59:53.248Z,972.53
2023-02-09T01:02:19.580Z,972.56
2023-02-09T01:04:45.984Z,972.56
2023-02-09T01:07:12.291Z,972.58
2023-02-09T01:09:38.675Z,972.47
2023-02-09T01:12:05.032Z,972.48
2023-02-09T01:14:31.386Z,972.46
2023-02-09T01:16:57.781Z,972.42
2023-02-09T01:19:24.072Z,972.44
2023-02-09T01:21:50.483Z,972.39
2023-02-09T01:24:16.799Z,972.38
2023-02-09T01:26:43.184Z,972.38
2023-02-09T01:29:09.758Z,972.36
2023-02-09T01:31:36.280Z,972.39
2023-02-09T01:34:02.450Z,972.39
2023-02-09T01:36:28.937Z,972.37
2023-02-09T01:38:55.264Z,972.42
2023-02-09T01:41:21.649Z,972.38
2023-02-09T01:43:48.015Z,972.37
2023-02-09T01:46:14.528Z,972.39
2023-02-09T01:48:40.739Z,972.46
2023-02-09T01:51:07.117Z,972.39
2023-02-09T01:53:33.508Z,972.34
2023-02-09T01:55:59.808Z,972.36
2023-02-09T01:58:26.218Z,972.33
2023-02-09T02:00:52.575Z,972.35
2023-02-09T02:03:18.941Z,972.25
2023-02-09T02:05:45.309Z,972.27
2023-02-09T02:08:11.705Z,972.26
2023-02-09T02:10:38.030Z,972.23
2023-02-09T02:13:04.399Z,972.22
2023-02-09T02:15:30.765Z,972.22
2023-02-09T02:17:57.089Z,972.22
2023-02-09T02:20:23.453Z,972.23
2023-02-09T02:22:49.793Z,972.25
2023-02-09T02:25:16.178Z,972.23
2023-02-09T02:27:42.502Z,972.25
2023-02-09T02:30:08.879Z,972.16
2023-02-09T02:32:35.205Z,972.19
2023-02-09T02:35:01.568Z,972.17
2023-02-09T02:37:27.911Z,972.16
2023-02-09T02:39:54.289Z,972.15
2023-02-09T02:42:20.636Z,972.06
2023-02-09T02:44:46.998Z,972.05
2023-02-09T02:47:13.358Z,971.98
2023-02-09T02:49:39.743Z,972.02
2023-02-09T02:52:06.105Z,972.02
2023-02-09T02:54:32.483Z,971.96
2023-02-09T02:56:58.839Z,971.91
2023-02-09T02:59:25.184Z,971.93
2023-02-09T03:01:51.575Z,971.88
2023-02-09T03:04:17.864Z,971.87
2023-02-09T03:06:44.268Z,971.94
2023-02-09T03:09:10.582Z,971.86
2023-02-09T03:11:36.969Z,971.82
2023-02-09T03:14:03.362Z,971.85
2023-02-09T03:16:29.725Z,971.83
2023-02-09T03:18:56.055Z,971.90
2023-02-09T03:21:22.366Z,971.89
2023-02-09T03:23:48.786Z,971.90
2023-02-09T03:26:15.102Z,971.85
2023-02-09T03:28:41.461Z,971.77
2023-02-09T03:31:07.945Z,971.80
2023-02-09T03:33:34.209Z,971.75
2023-02-09T03:36:00.545Z,971.73
2023-02-09T03:38:26.906Z,971.76
2023-02-09T03:40:53.310Z,971.81
2023-02-09T03:43:19.660Z,971.81
2023-02-09T03:45:46.010Z,971.74
2023-02-09T03:48:12.442Z,971.76
2023-02-09T03:50:38.794Z,971.79
2023-02-09T03:53:05.172Z,971.83
2023-02-09T03:55:31.526Z,971.81
2023-02-09T03:57:57.887Z,971.77
2023-02-09T04:00:24.197Z,971.76
2023-02-09T04:02:50.655Z,971.77
2023-02-09T04:05:16.889Z,971.81
2023-02-09T04:07:43.228Z,971.84
2023-02-09T04:10:09.599Z,971.91
2023-02-09T04:12:35.940Z,971.86
2023-02-09T04:15:02.257Z,971.78
2023-02-09T04:17:28.689Z,971.82
2023-02-09T04:19:55.010Z,971.83
2023-02-09T04:22:21.367Z,971.82
2023-02-09T04:24:47.735Z,971.77
2023-02-09T04:27:14.093Z,971.81
2023-02-09T04:29:40.407Z,971.80
2023-02-09T04:32:06.997Z,971.78
2023-02-09T04:34:33.201Z,971.77
2023-02-09T04:36:59.586Z,971.72
2023-02-09T04:39:25.951Z,971.78
2023-02-09T04:41:52.324Z,971.79
2023-02-09T04:44:18.698Z,971.81
2023-02-09T04:46:45.798Z,971.87
2023-02-09T04:49:11.467Z,971.78
2023-02-09T04:51:37.804Z,971.89
2023-02-09T04:54:04.146Z,971.83
2023-02-09T04:56:30.524Z,971.84
2023-02-09T04:58:56.877Z,971.82
2023-02-09T05:01:23.557Z,971.85
2023-02-09T05:03:49.932Z,971.75
2023-02-09T05:06:16.252Z,971.79
2023-02-09T05:08:42.610Z,971.74
2023-02-09T05:11:08.985Z,971.76
2023-02-09T05:13:35.381Z,971.69
2023-02-09T05:16:01.726Z,971.81
2023-02-09T05:18:28.331Z,971.87
2023-02-09T05:20:54.675Z,971.87
2023-02-09T05:23:20.985Z,971.85
2023-02-09T05:25:47.402Z,971.85
2023-02-09T05:28:13.785Z,971.80
2023-02-09T05:30:40.144Z,971.82
2023-02-09T05:33:06.566Z,971.83
2023-02-09T05:35:32.926Z,971.89
2023-02-09T05:37:59.237Z,971.90
2023-02-09T05:40:25.622Z,971.88
2023-02-09T05:42:51.931Z,971.86
2023-02-09T05:45:18.326Z,971.88
2023-02-09T05:47:44.675Z,971.97
2023-02-09T05:50:11.078Z,971.99
2023-02-09T05:52:37.493Z,972.04
2023-02-09T05:55:03.808Z,971.96
2023-02-09T05:57:30.197Z,971.96
2023-02-09T05:59:56.543Z,972.00
2023-02-09T06:02:22.979Z,971.93
2023-02-09T06:04:49.296Z,971.94
2023-02-09T06:07:15.707Z,971.97
2023-02-09T06:09:42.029Z,971.98
2023-02-09T06:12:08.369Z,971.93
2023-02-09T06:14:34.924Z,971.92
2023-02-09T06:17:01.305Z,971.92
2023-02-09T06:19:27.657Z,971.89
2023-02-09T06:21:54.041Z,971.86
2023-02-09T06:24:20.362Z,971.85
2023-02-09T06:26:46.736Z,971.78
2023-02-09T06:29:13.138Z,971.89
2023-02-09T06:31:39.552Z,971.86
2023-02-09T06:34:05.916Z,971.88
2023-02-09T06:36:32.357Z,971.80
2023-02-09T06:38:58.662Z,971.86
2023-02-09T06:41:25.297Z,971.77
2023-02-09T06:43:51.718Z,971.72
2023-02-09T06:46:18.155Z,971.73
2023-02-09T06:48:44.425Z,971.68
2023-02-09T06:51:10.863Z,971.58
2023-02-09T06:53:37.197Z,971.65
2023-02-09T06:56:03.638Z,971.56
2023-02-09T06:58:30.008Z,971.52
2023-02-09T07:00:56.342Z,971.52
2023-02-09T07:03:22.706Z,971.52
2023-02-09T07:05:49.154Z,971.51
2023-02-09T07:08:15.672Z,971.53
2023-02-09T07:10:42.053Z,971.57
2023-02-09T07:13:08.579Z,971.55
2023-02-09T07:15:34.932Z,971.58
2023-02-09T07:18:01.266Z,971.56
2023-02-09T07:20:27.659Z,971.52
2023-02-09T07:22:54.018Z,971.60
2023-02-09T07:25:20.478Z,971.57
2023-02-09T07:27:46.768Z,971.62
2023-02-09T07:30:13.189Z,971.52
2023-02-09T07:32:39.534Z,971.58
2023-02-09T07:35:05.932Z,971.51
2023-02-09T07:37:32.324Z,971.56
2023-02-09T07:39:58.715Z,971.52
2023-02-09T07:42:25.111Z,971.58
2023-02-09T07:44:51.505Z,971.60
2023-02-09T07:47:17.833Z,971.53
2023-02-09T07:49:44.288Z,971.48
2023-02-09T07:52:10.909Z,971.46
2023-02-09T07:54:37.349Z,971.47
2023-02-09T07:57:03.671Z,971.46
2023-02-09T07:59:30.021Z,971.32
2023-02-09T08:01:56.559Z,971.37
2023-02-09T08:04:22.989Z,971.37
2023-02-09T08:06:49.319Z,971.56
2023-02-09T08:09:15.715Z,971.37
2023-02-09T08:11:43.950Z,971.41
2023-02-09T08:14:08.614Z,971.39
2023-02-09T08:16:35.053Z,971.43
2023-02-09T08:19:01.416Z,971.35
2023-02-09T08:21:27.747Z,971.36
2023-02-09T08:23:54.126Z,971.47
2023-02-09T08:26:20.447Z,971.42
2023-02-09T08:28:46.992Z,971.49
2023-02-09T08:31:13.190Z,971.42
2023-02-09T08:33:39.975Z,971.44
2023-02-09T08:36:06.304Z,971.40
2023-02-09T08:38:32.703Z,971.36
2023-02-09T08:40:59.070Z,971.35
2023-02-09T08:43:25.412Z,971.22
2023-02-09T08:45:52.296Z,971.39
2023-02-09T08:48:18.368Z,971.36
2023-02-09T08:50:44.797Z,971.43
2023-02-09T08:53:11.201Z,971.43
2023-02-09T08:55:37.513Z,971.36
2023-02-09T08:58:03.892Z,971.42
2023-02-09T09:00:30.191Z,971.44
2023-02-09T09:02:56.795Z,971.45
2023-02-09T09:05:23.198Z,971.43
2023-02-09T09:07:49.528Z,971.41
2023-02-09T09:10:15.895Z,971.44
2023-02-09T09:12:42.232Z,971.42
2023-02-09T09:15:11.741Z,971.34
2023-02-09T09:17:38.129Z,971.53
2023-02-09T09:20:04.778Z,971.50
2023-02-09T09:22:31.211Z,971.50
2023-02-09T09:24:57.552Z,971.46
2023-02-09T09:27:26.106Z,971.41
2023-02-09T09:29:50.288Z,971.43
2023-02-09T09:32:16.722Z,971.51
2023-02-09T09:34:42.980Z,971.47
2023-02-09T09:37:09.372Z,971.29
2023-02-09T09:39:35.708Z,971.41
2023-02-09T09:42:02.101Z,971.37
2023-02-09T09:44:28.464Z,971.43
2023-02-09T09:46:54.861Z,971.41
2023-02-09T09:49:21.739Z,971.31
2023-02-09T09:51:48.100Z,971.27
2023-02-09T09:54:14.425Z,971.32
2023-02-09T09:56:40.811Z,971.35
2023-02-09T09:59:07.280Z,971.30
2023-02-09T10:01:33.694Z,971.29
2023-02-09T10:03:59.995Z,971.22
2023-02-09T10:06:26.605Z,971.23
2023-02-09T10:08:52.927Z,971.16
2023-02-09T10:11:19.268Z,971.16
2023-02-09T10:13:46.834Z,971.00
2023-02-09T10:16:13.169Z,970.99
2023-02-09T10:18:39.586Z,970.95
2023-02-09T10:21:06.401Z,970.91
2023-02-09T10:23:32.798Z,970.89
2023-02-09T10:25:59.161Z,970.93
2023-02-09T10:28:25.558Z,970.86
2023-02-09T10:30:51.952Z,970.86
2023-02-09T10:33:18.265Z,970.78
2023-02-09T10:35:45.063Z,970.79
2023-02-09T10:38:11.067Z,970.80
2023-02-09T10:40:37.492Z,970.76
2023-02-09T10:43:03.847Z,970.71
2023-02-09T10:45:30.197Z,970.73
2023-02-09T10:47:56.607Z,970.80
2023-02-09T10:50:22.946Z,970.72
2023-02-09T10:52:49.287Z,970.73
2023-02-09T10:55:15.662Z,970.70
2023-02-09T10:57:42.084Z,970.64
2023-02-09T11:00:08.466Z,970.68
2023-02-09T11:02:34.802Z,970.62
2023-02-09T11:05:01.164Z,970.60
2023-02-09T11:07:27.500Z,970.71
2023-02-09T11:09:54.021Z,970.53
2023-02-09T11:12:20.348Z,970.65
2023-02-09T11:14:46.732Z,970.68
2023-02-09T11:17:13.092Z,970.49
2023-02-09T11:19:39.518Z,970.47
2023-02-09T11:22:05.914Z,970.41
2023-02-09T11:24:32.245Z,970.29
2023-02-09T11:27:00.732Z,970.28
2023-02-09T11:29:27.063Z,970.30
2023-02-09T11:31:53.837Z,970.39
2023-02-09T11:34:20.123Z,970.28
2023-02-09T11:36:46.442Z,970.25
2023-02-09T11:39:12.934Z,970.26
2023-02-09T11:41:39.361Z,970.27
2023-02-09T11:44:05.647Z,970.19
2023-02-09T11:46:32.022Z,970.17
2023-02-09T11:48:58.330Z,970.11
2023-02-09T11:51:24.761Z,970.16
2023-02-09T11:53:51.112Z,970.04
2023-02-09T11:56:17.431Z,970.06
2023-02-09T11:58:43.957Z,970.04
2023-02-09T12:01:15.898Z,969.94
2023-02-09T12:03:36.684Z,969.98
2023-02-09T12:06:03.076Z,970.11
2023-02-09T12:08:29.473Z,970.04
2023-02-09T12:10:55.829Z,969.96
2023-02-09T12:13:22.203Z,969.89
2023-02-09T12:15:48.728Z,969.89
2023-02-09T12:18:15.128Z,969.89
2023-02-09T12:20:42.605Z,969.90
2023-02-09T12:23:08.959Z,969.86
2023-02-09T12:25:35.313Z,969.81
2023-02-09T12:28:01.872Z,969.77
2023-02-09T12:30:28.144Z,969.70
2023-02-09T12:32:54.525Z,969.71
2023-02-09T12:35:20.934Z,969.79
2023-02-09T12:37:47.319Z,969.66
2023-02-09T12:40:13.753Z,969.68
2023-02-09T12:42:40.086Z,969.67
2023-02-09T12:45:06.564Z,969.59
2023-02-09T12:47:32.917Z,969.52
2023-02-09T12:49:59.238Z,969.52
2023-02-09T12:52:25.813Z,969.44
2023-02-09T12:54:52.171Z,969.55
2023-02-09T12:57:18.517Z,969.48
2023-02-09T12:59:45.096Z,969.49
2023-02-09T13:02:11.462Z,969.52
2023-02-09T13:04:37.893Z,969.37
2023-02-09T13:07:04.557Z,969.39
2023-02-09T13:09:30.897Z,969.36
2023-02-09T13:11:57.248Z,969.29
2023-02-09T13:14:23.631Z,969.29
2023-02-09T13:16:50.078Z,969.33
2023-02-09T13:19:16.427Z,969.34
2023-02-09T13:21:42.772Z,969.43
2023-02-09T13:24:09.124Z,969.40
2023-02-09T13:26:35.477Z,969.35
2023-02-09T13:29:11.634Z,969.40
2023-02-09T13:31:28.498Z,969.34
2023-02-09T13:33:54.783Z,969.39
2023-02-09T13:36:24.979Z,969.32
2023-02-09T13:38:47.675Z,969.35
2023-02-09T13:41:14.549Z,969.26
2023-02-09T13:43:41.099Z,969.34
2023-02-09T13:46:07.464Z,969.40
2023-02-09T13:48:33.810Z,969.32
2023-02-09T13:51:00.277Z,969.26
2023-02-09T13:53:26.591Z,969.26
2023-02-09T13:55:53.032Z,969.30
2023-02-09T13:58:19.363Z,969.20
2023-02-09T14:00:45.791Z,969.27
2023-02-09T14:03:12.683Z,969.22
2023-02-09T14:05:38.912Z,969.19
2023-02-09T14:08:05.228Z,969.19
2023-02-09T14:10:31.568Z,969.24
2023-02-09T14:12:57.938Z,969.31
2023-02-09T14:15:24.722Z,969.23
2023-02-09T14:17:51.418Z,969.23
2023-02-09T14:20:17.760Z,969.26
2023-02-09T14:22:44.122Z,969.23
2023-02-09T14:25:10.525Z,969.23
2023-02-09T14:27:36.888Z,969.24
2023-02-09T14:30:03.336Z,969.21
2023-02-09T14:32:33.099Z,969.21
2023-02-09T14:34:56.022Z,969.19
2023-02-09T14:37:22.401Z,969.10
2023-02-09T14:39:48.758Z,969.13
2023-02-09T14:42:15.403Z,969.16
2023-02-09T14:44:41.814Z,969.16
2023-02-09T14:47:08.158Z,969.06
2023-02-09T14:49:34.828Z,969.07
2023-02-09T14:52:01.969Z,969.09
2023-02-09T14:54:28.329Z,969.12
2023-02-09T14:56:58.490Z,969.23
2023-02-09T14:59:23.527Z,969.22
2023-02-09T15:01:52.400Z,969.25
2023-02-09T15:04:19.663Z,969.23
2023-02-09T15:06:46.420Z,969.28
2023-02-09T15:09:13.338Z,969.32
2023-02-09T15:11:42.995Z,969.37
2023-02-09T15:14:10.516Z,969.34
2023-02-09T15:16:37.924Z,969.41
2023-02-09T15:19:04.389Z,969.40
2023-02-09T15:21:33.186Z,969.49
2023-02-09T15:24:00.781Z,969.54
2023-02-09T15:26:37.104Z,969.50
2023-02-09T15:29:05.754Z,969.53
2023-02-09T15:31:33.223Z,969.53
2023-02-09T15:33:59.614Z,969.62
2023-02-09T15:36:25.870Z,969.67
2023-02-09T15:38:52.249Z,969.68
2023-02-09T15:41:18.614Z,969.68
2023-02-09T15:43:45.007Z,969.79
2023-02-09T15:46:11.403Z,969.82
2023-02-09T15:48:37.717Z,969.83
2023-02-09T15:51:04.011Z,969.84
2023-02-09T15:53:30.757Z,969.95
2023-02-09T15:55:58.779Z,969.93
2023-02-09T15:58:23.541Z,969.90
2023-02-09T16:00:49.925Z,969.94
2023-02-09T16:03:16.331Z,969.90
2023-02-09T16:05:43.047Z,969.94
2023-02-09T16:08:11.571Z,969.92
2023-02-09T16:10:38.067Z,970.01
2023-02-09T16:13:04.492Z,969.99
2023-02-09T16:15:33.156Z,969.90
2023-02-09T16:17:59.486Z,969.94
2023-02-09T16:20:26.437Z,969.90
2023-02-09T16:22:52.438Z,969.93
2023-02-09T16:25:18.796Z,969.94
2023-02-09T16:27:45.142Z,969.96
2023-02-09T16:30:13.632Z,969.89
2023-02-09T16:32:40.138Z,969.90
2023-02-09T16:35:16.382Z,969.92
2023-02-09T16:37:32.855Z,969.87
2023-02-09T16:39:59.266Z,969.87
2023-02-09T16:42:25.573Z,969.92
2023-02-09T16:44:51.928Z,969.98
2023-02-09T16:47:18.300Z,969.94
2023-02-09T16:49:44.686Z,969.98
2023-02-09T16:52:11.007Z,970.05
2023-02-09T16:54:37.404Z,970.05
2023-02-09T16:57:03.853Z,970.01
2023-02-09T16:59:30.519Z,970.08
2023-02-09T17:01:58.056Z,970.12
2023-02-09T17:04:24.402Z,970.06
2023-02-09T17:06:50.823Z,970.01
2023-02-09T17:09:17.249Z,970.01
2023-02-09T17:11:43.856Z,970.13
2023-02-09T17:14:10.226Z,970.08
2023-02-09T17:16:36.588Z,970.02
2023-02-09T17:19:02.958Z,969.97
2023-02-09T17:21:29.354Z,970.08
2023-02-09T17:23:56.849Z,970.12
2023-02-09T17:26:23.175Z,970.15
2023-02-09T17:28:49.511Z,970.08
2023-02-09T17:31:17.903Z,970.10
2023-02-09T17:33:44.197Z,970.11
2023-02-09T17:36:25.707Z,970.14
2023-02-09T17:38:37.705Z,970.14
2023-02-09T17:41:04.028Z,970.14
2023-02-09T17:43:31.315Z,970.15
2023-02-09T17:45:57.738Z,970.16
2023-02-09T17:48:24.398Z,970.19
2023-02-09T17:50:53.170Z,970.15
2023-02-09T17:53:19.762Z,970.14
2023-02-09T17:55:46.383Z,970.13
2023-02-09T17:58:12.472Z,970.22
2023-02-09T18:00:38.965Z,970.21
2023-02-09T18:03:05.473Z,970.13
2023-02-09T18:05:31.991Z,970.09
2023-02-09T18:07:58.404Z,970.12
2023-02-09T18:10:24.792Z,970.20
2023-02-09T18:12:53.441Z,970.21
2023-02-09T18:15:19.868Z,970.20
2023-02-09T18:17:49.972Z,970.21
2023-02-09T18:20:16.308Z,970.17
2023-02-09T18:22:42.698Z,970.16
2023-02-09T18:25:09.032Z,970.15
2023-02-09T18:27:35.417Z,970.15
2023-02-09T18:30:01.810Z,970.13
2023-02-09T18:32:28.140Z,970.17
2023-02-09T18:34:54.576Z,970.12
2023-02-09T18:37:21.280Z,970.17
2023-02-09T18:39:47.603Z,970.18
2023-02-09T18:42:13.992Z,970.20
2023-02-09T18:44:40.426Z,970.14
2023-02-09T18:47:06.806Z,970.10
2023-02-09T18:49:33.102Z,970.13
2023-02-09T18:51:59.636Z,970.13
2023-02-09T18:54:28.338Z,970.14
2023-02-09T18:56:53.490Z,970.24
2023-02-09T18:59:19.894Z,970.18
2023-02-09T19:01:46.308Z,970.17
2023-02-09T19:04:12.609Z,970.17
2023-02-09T19:06:38.965Z,970.24
2023-02-09T19:09:05.331Z,970.23
2023-02-09T19:11:32.750Z,970.23
2023-02-09T19:13:59.362Z,970.24
2023-02-09T19:16:25.773Z,970.29
2023-02-09T19:18:52.324Z,970.23
2023-02-09T19:21:18.877Z,970.22
2023-02-09T19:23:45.309Z,970.14
2023-02-09T19:26:11.706Z,970.30
2023-02-09T19:28:38.080Z,970.21
2023-02-09T19:31:04.487Z,970.19
2023-02-09T19:33:30.904Z,970.26
2023-02-09T19:35:57.395Z,970.23
2023-02-09T19:38:23.778Z,970.18
2023-02-09T19:40:52.649Z,970.15
2023-02-09T19:43:16.650Z,970.24
2023-02-09T19:45:43.050Z,970.21
2023-02-09T19:48:09.382Z,970.18
2023-02-09T19:50:35.737Z,970.21
2023-02-09T19:53:02.220Z,970.18
2023-02-09T19:55:28.607Z,970.22
2023-02-09T19:57:54.929Z,970.24
2023-02-09T20:00:21.339Z,970.17
2023-02-09T20:02:48.147Z,970.17
2023-02-09T20:05:14.418Z,970.24
2023-02-09T20:07:40.942Z,970.29
2023-02-09T20:10:07.331Z,970.32
2023-02-09T20:12:33.716Z,970.30
2023-02-09T20:15:00.124Z,970.23
2023-02-09T20:17:26.473Z,970.26
2023-02-09T20:19:52.834Z,970.30
2023-02-09T20:22:19.178Z,970.36
2023-02-09T20:24:45.568Z,970.33
2023-02-09T20:27:11.911Z,970.39
2023-02-09T20:29:38.389Z,970.40
2023-02-09T20:32:04.754Z,970.47
2023-02-09T20:34:31.114Z,970.38
2023-02-09T20:36:57.592Z,970.35
2023-02-09T20:39:24.065Z,970.39
2023-02-09T20:41:50.745Z,970.33
2023-02-09T20:44:17.498Z,970.37
2023-02-09T20:46:43.824Z,970.42
2023-02-09T20:49:10.229Z,970.39
2023-02-09T20:51:36.567Z,970.29
2023-02-09T20:54:02.940Z,970.26
2023-02-09T20:56:29.310Z,970.28
2023-02-09T20:58:55.688Z,970.25
2023-02-09T21:01:22.086Z,970.22
2023-02-09T21:03:48.464Z,970.27
2023-02-09T21:06:15.801Z,970.27
2023-02-09T21:08:42.240Z,970.21
2023-02-09T21:11:08.596Z,970.12
2023-02-09T21:13:35.001Z,970.21
2023-02-09T21:16:03.290Z,970.24
2023-02-09T21:18:28.004Z,970.23
2023-02-09T21:20:54.317Z,970.16
2023-02-09T21:23:20.920Z,970.22
2023-02-09T21:25:47.454Z,970.21
2023-02-09T21:28:13.888Z,970.14
2023-02-09T21:30:40.863Z,970.15
2023-02-09T21:33:06.544Z,970.19
2023-02-09T21:35:32.853Z,970.13
2023-02-09T21:37:59.291Z,970.17
2023-02-09T21:40:25.651Z,970.23
2023-02-09T21:42:52.030Z,970.20
2023-02-09T21:45:18.480Z,970.21
2023-02-09T21:47:45.077Z,970.15
2023-02-09T21:50:11.477Z,970.22
2023-02-09T21:52:37.832Z,970.18
2023-02-09T21:55:04.389Z,970.24
2023-02-09T21:57:30.704Z,970.21
2023-02-09T21:59:57.066Z,970.29
2023-02-09T22:02:23.456Z,970.29
2023-02-09T22:04:49.863Z,970.21
2023-02-09T22:07:16.321Z,970.21
2023-02-09T22:09:42.712Z,970.25
2023-02-09T22:12:09.067Z,970.21
2023-02-09T22:14:35.428Z,970.27
2023-02-09T22:17:01.823Z,970.27
2023-02-09T22:19:28.202Z,970.27
2023-02-09T22:21:54.561Z,970.34
2023-02-09T22:24:20.874Z,970.38
2023-02-09T22:26:47.261Z,970.24
2023-02-09T22:29:13.825Z,970.33
2023-02-09T22:31:40.777Z,970.32
2023-02-09T22:34:07.047Z,970.26
2023-02-09T22:36:33.430Z,970.29
2023-02-09T22:38:59.804Z,970.28
2023-02-09T22:41:26.196Z,970.25
2023-02-09T22:43:52.547Z,970.25
2023-02-09T22:46:18.971Z,970.23
2023-02-09T22:48:45.244Z,970.28
2023-02-09T22:51:11.582Z,970.24
2023-02-09T22:53:37.998Z,970.26
2023-02-09T22:56:04.334Z,970.29
2023-02-09T22:58:30.684Z,970.29
2023-02-09T23:00:57.137Z,970.31
2023-02-09T23:03:23.460Z,970.30
2023-02-09T23:05:49.964Z,970.36
2023-02-09T23:08:16.504Z,970.29
2023-02-09T23:10:42.896Z,970.29
2023-02-09T23:13:09.293Z,970.32
2023-02-09T23:15:35.746Z,970.33
2023-02-09T23:18:02.060Z,970.35
2023-02-09T23:20:28.404Z,970.34
2023-02-09T23:22:54.847Z,970.38
2023-02-09T23:25:21.209Z,970.41
2023-02-09T23:27:47.532Z,970.40
2023-02-09T23:30:13.873Z,970.34
2023-02-09T23:32:40.249Z,970.37
2023-02-09T23:35:06.615Z,970.46
2023-02-09T23:37:39.902Z,970.45
2023-02-09T23:39:59.357Z,970.44
2023-02-09T23:42:25.667Z,970.49
2023-02-09T23:44:52.022Z,970.49
2023-02-09T23:47:18.354Z,970.51
2023-02-09T23:49:44.692Z,970.46
2023-02-09T23:52:11.015Z,970.48
2023-02-09T23:54:37.405Z,970.39
2023-02-09T23:57:03.739Z,970.38
2023-02-09T23:59:30.170Z,970.34
